Time;durP1;ratioP1;P1;durP2;ratioP2;P2;SDS_P1;SDS_P2;PMS_P1;PMS_P2;Temp;Humidity;BMP_temperature;BMP_pressure;BME280_temperature;BME280_humidity;BME280_pressure;Samples;Min_cycle;Max_cycle;Signal;HPM_P1;HPM_P2
2021/03/20 00:01:25;;;;;;;10.77;8.97;;;0.00;99.90;;;0.57;43.55;94541.88;5011388;28;20190;-71
2021/03/20 00:03:51;;;;;;;10.23;8.00;;;0.00;99.90;;;0.46;44.08;94545.78;5010937;28;20170;-70
2021/03/20 00:06:27;;;;;;;10.50;8.30;;;-0.10;99.90;;;0.48;44.06;94533.34;5026841;28;20196;-70
2021/03/20 00:08:55;;;;;;;10.47;8.80;;;-0.10;99.90;;;0.52;43.96;94539.81;5027613;28;20158;-70
2021/03/20 00:11:23;;;;;;;9.67;7.97;;;-0.10;99.90;;;0.43;43.76;94551.38;5017663;28;20227;-70
2021/03/20 00:13:51;;;;;;;10.13;8.27;;;-0.10;99.90;;;0.41;43.88;94542.09;5010733;28;20178;-70
2021/03/20 00:16:18;;;;;;;9.07;7.93;;;-0.20;99.90;;;0.40;44.07;94551.72;4998833;28;20211;-71
2021/03/20 00:18:45;;;;;;;9.93;8.30;;;-0.20;99.90;;;0.34;44.43;94546.44;5010914;28;20185;-70
2021/03/20 00:21:11;;;;;;;12.40;9.30;;;-0.20;99.90;;;0.36;44.10;94558.31;4994224;28;20179;-70
2021/03/20 00:23:40;;;;;;;10.93;8.63;;;-0.30;99.90;;;0.28;44.27;94553.22;5010670;28;20268;-70
2021/03/20 00:26:10;;;;;;;12.10;9.47;;;-0.30;99.90;;;0.30;44.47;94559.03;5004358;28;20173;-70
2021/03/20 00:28:36;;;;;;;10.30;8.80;;;-0.30;99.90;;;0.27;44.38;94551.59;5026818;28;20187;-70
2021/03/20 00:31:11;;;;;;;12.80;8.60;;;-0.20;99.90;;;0.21;44.48;94551.53;5010958;28;20232;-70
2021/03/20 00:33:45;;;;;;;11.60;8.93;;;-0.40;99.90;;;0.31;44.19;94560.66;5003949;28;20235;-70
2021/03/20 00:36:13;;;;;;;12.70;9.60;;;-0.30;99.90;;;0.27;44.21;94551.59;5023863;28;20185;-69
2021/03/20 00:38:40;;;;;;;13.33;10.10;;;-0.30;99.90;;;0.24;44.71;94549.34;5010641;28;20177;-70
2021/03/20 00:41:08;;;;;;;12.63;9.53;;;-0.40;99.90;;;0.24;44.68;94554.56;5006823;28;20187;-70
2021/03/20 00:43:37;;;;;;;13.47;10.80;;;-0.40;99.90;;;0.22;44.81;94545.31;5009770;28;20192;-70
2021/03/20 00:46:06;;;;;;;12.60;9.73;;;-0.40;99.90;;;0.20;44.85;94553.31;5017413;28;20757;-70
2021/03/20 00:48:38;;;;;;;12.90;9.97;;;-0.40;99.90;;;0.12;44.95;94553.44;4990898;28;20186;-70
2021/03/20 00:51:05;;;;;;;13.33;10.57;;;-0.50;99.90;;;0.18;44.65;94552.72;5002182;28;20272;-69
2021/03/20 00:53:31;;;;;;;15.13;10.50;;;-0.40;99.90;;;0.23;44.84;94554.75;4993991;28;20173;-69
2021/03/20 00:55:59;;;;;;;15.00;11.13;;;-0.40;99.90;;;0.25;44.96;94556.19;5011377;28;20181;-70
2021/03/20 00:58:37;;;;;;;14.83;11.10;;;-0.40;99.90;;;0.18;45.13;94557.91;5006302;28;20162;-69
2021/03/20 01:01:11;;;;;;;16.30;11.60;;;-0.40;99.90;;;0.22;44.88;94559.16;4994100;28;20499;-69
2021/03/20 01:03:38;;;;;;;17.03;12.13;;;-0.40;99.90;;;0.23;45.32;94568.59;4993716;28;20257;-70
2021/03/20 01:06:10;;;;;;;15.13;11.60;;;-0.40;99.90;;;0.24;44.97;94565.00;5020071;28;20173;-70
2021/03/20 01:08:41;;;;;;;15.13;11.83;;;-0.40;99.90;;;0.30;45.31;94568.69;4993353;28;20185;-70
2021/03/20 01:11:09;;;;;;;16.00;12.53;;;-0.30;99.90;;;0.30;45.17;94564.25;5009428;28;20191;-71
2021/03/20 01:13:36;;;;;;;16.60;12.37;;;-0.30;99.90;;;0.33;45.73;94568.31;4993983;28;20202;-70
2021/03/20 01:16:02;;;;;;;15.93;12.47;;;-0.30;99.90;;;0.28;45.90;94568.03;4995630;28;20209;-70
2021/03/20 01:18:28;;;;;;;15.53;11.87;;;-0.30;99.90;;;0.32;45.56;94564.88;5009471;28;20189;-70
2021/03/20 01:20:54;;;;;;;20.50;13.30;;;-0.30;99.90;;;0.27;45.21;94566.44;5009630;28;20193;-70
2021/03/20 01:23:21;;;;;;;13.47;10.53;;;-0.30;99.90;;;0.24;45.51;94566.78;5009830;28;20196;-70
2021/03/20 01:25:52;;;;;;;14.40;11.03;;;-0.30;99.90;;;0.33;45.90;94563.91;5011921;28;20252;-70
2021/03/20 01:28:24;;;;;;;16.30;12.17;;;-0.30;99.90;;;0.38;45.46;94568.53;5006789;28;20237;-69
2021/03/20 01:30:50;;;;;;;16.23;12.47;;;-0.20;99.90;;;0.26;45.81;94570.84;4993777;28;20695;-70
2021/03/20 01:33:16;;;;;;;17.83;12.73;;;-0.40;99.90;;;0.30;45.87;94571.28;5009278;28;20186;-70
2021/03/20 01:35:41;;;;;;;15.57;12.37;;;-0.30;99.90;;;0.30;45.89;94577.28;5017482;28;20185;-70
2021/03/20 01:38:08;;;;;;;17.10;12.13;;;-0.30;99.90;;;0.28;46.08;94579.28;4982005;28;20185;-70
2021/03/20 01:40:43;;;;;;;14.67;11.40;;;-0.30;99.90;;;0.37;46.03;94572.16;5010752;28;20204;-70
2021/03/20 01:43:14;;;;;;;19.07;11.57;;;-0.30;99.90;;;0.24;46.23;94558.97;5009938;28;20536;-70
2021/03/20 01:45:41;;;;;;;16.60;12.20;;;-0.30;99.90;;;0.21;46.37;94565.34;5010435;28;20327;-70
2021/03/20 01:48:29;;;;;;;14.10;11.00;;;-0.40;99.90;;;0.22;46.05;94579.19;4997364;28;20232;-70
2021/03/20 01:51:03;;;;;;;16.47;11.17;;;-0.40;99.90;;;0.23;46.11;94566.00;5011927;28;20196;-70
2021/03/20 01:53:51;;;;;;;19.67;12.27;;;-0.40;99.90;;;0.32;45.70;94569.28;4986671;28;20257;-69
2021/03/20 01:56:25;;;;;;;13.83;10.87;;;-0.30;99.90;;;0.22;46.26;94558.34;5013320;28;20730;-70
2021/03/20 01:58:55;;;;;;;15.23;11.40;;;-0.40;99.90;;;0.16;45.81;94566.91;4996903;28;20223;-70
2021/03/20 02:01:27;;;;;;;15.30;10.50;;;-0.40;99.90;;;0.06;46.21;94574.22;5014335;28;20191;-71
2021/03/20 02:03:59;;;;;;;15.03;10.37;;;-0.50;99.90;;;0.09;46.39;94571.25;5029696;28;20177;-69
2021/03/20 02:06:27;;;;;;;12.27;9.37;;;-0.50;99.90;;;0.18;46.26;94560.53;5004228;28;20251;-71
2021/03/20 02:08:58;;;;;;;12.73;9.23;;;-0.40;99.90;;;0.15;46.57;94563.50;5028352;28;20193;-70
2021/03/20 02:11:48;;;;;;;14.10;10.17;;;-0.50;99.90;;;0.19;46.72;94563.94;5012932;28;20185;-70
2021/03/20 02:14:36;;;;;;;14.97;9.70;;;-0.40;99.90;;;0.18;46.14;94557.91;5013154;28;20185;-70
2021/03/20 02:17:59;;;;;;;13.50;10.13;;;-0.40;99.90;;;0.19;46.87;94566.53;5013174;28;20177;-70
2021/03/20 02:21:06;;;;;;;13.23;10.13;;;-0.50;99.90;;;0.24;46.68;94562.38;5007668;28;20182;-70
2021/03/20 02:24:09;;;;;;;13.93;10.13;;;-0.40;99.90;;;0.20;46.69;94544.72;5012978;28;20177;-69
2021/03/20 02:27:12;;;;;;;13.47;9.90;;;-0.40;99.90;;;0.20;46.71;94560.34;5027955;28;20235;-69
2021/03/20 02:30:30;;;;;;;13.07;10.10;;;-0.40;99.90;;;0.26;46.63;94563.03;5013072;28;20173;-70
2021/03/20 02:33:19;;;;;;;14.90;11.13;;;-0.40;99.90;;;0.19;46.81;94548.31;5028042;28;20692;-69
2021/03/20 02:36:04;;;;;;;14.10;10.53;;;-0.40;99.90;;;0.20;47.41;94555.91;5028694;28;20211;-70
2021/03/20 02:38:52;;;;;;;14.57;10.67;;;-0.40;99.90;;;0.19;47.04;94558.72;5012854;28;20165;-70
2021/03/20 02:41:54;;;;;;;15.13;11.03;;;-0.40;99.90;;;0.17;47.07;94568.53;4996039;28;20181;-69
2021/03/20 02:45:00;;;;;;;14.87;10.83;;;-0.40;99.90;;;0.15;47.26;94567.91;4996009;28;20177;-71
2021/03/20 02:47:33;;;;;;;14.47;10.43;;;-0.40;99.90;;;0.19;47.06;94569.97;5009951;28;20223;-70
2021/03/20 02:50:10;;;;;;;15.83;11.53;;;-0.40;99.90;;;0.23;47.27;94571.22;5028569;28;20672;-70
2021/03/20 02:52:54;;;;;;;17.93;11.03;;;-0.40;99.90;;;0.23;47.29;94579.03;5004359;28;20256;-70
2021/03/20 02:55:35;;;;;;;14.63;11.03;;;-0.40;99.90;;;0.23;47.08;94575.63;5028274;28;20184;-70
2021/03/20 02:58:06;;;;;;;16.40;11.33;;;-0.40;99.90;;;0.20;47.57;94568.16;4994754;28;20188;-69
2021/03/20 03:00:53;;;;;;;15.20;10.47;;;-0.40;99.90;;;0.19;47.21;94569.97;5014396;28;20266;-69
2021/03/20 03:03:24;;;;;;;15.13;11.20;;;-0.40;99.90;;;0.27;47.60;94577.66;5028767;28;20181;-70
2021/03/20 03:06:20;;;;;;;17.00;11.60;;;-0.40;99.90;;;0.25;47.62;94578.84;5011956;28;20177;-70
2021/03/20 03:09:03;;;;;;;15.30;10.87;;;-0.40;99.90;;;0.17;47.56;94578.97;5008839;28;20205;-70
2021/03/20 03:11:41;;;;;;;18.47;11.80;;;-0.40;99.90;;;0.15;47.39;94583.53;4984858;28;20192;-70
2021/03/20 03:14:51;;;;;;;15.60;10.93;;;-0.40;99.90;;;0.16;47.48;94578.16;4976903;28;20224;-70
2021/03/20 03:17:21;;;;;;;16.27;11.47;;;-0.50;99.90;;;0.11;47.55;94583.09;4996635;28;20213;-70
2021/03/20 03:20:00;;;;;;;19.20;12.63;;;-0.50;99.90;;;0.08;47.44;94577.44;4976840;28;20190;-70
2021/03/20 03:22:53;;;;;;;19.70;11.97;;;-0.60;99.90;;;-0.06;47.75;94585.09;4996264;28;20379;-69
2021/03/20 03:25:23;;;;;;;19.77;12.47;;;-0.60;99.90;;;-0.14;47.63;94577.41;4979755;28;20193;-69
2021/03/20 03:28:00;;;;;;;18.50;11.83;;;-0.70;99.90;;;-0.22;47.85;94579.28;4971855;28;20283;-70
2021/03/20 03:30:31;;;;;;;16.13;10.97;;;-0.80;99.90;;;-0.26;47.75;94565.84;4971073;28;20295;-71
2021/03/20 03:33:14;;;;;;;17.47;12.00;;;-0.80;99.90;;;-0.40;47.71;94577.06;4971461;28;20206;-69
2021/03/20 03:35:46;;;;;;;17.73;12.00;;;-1.00;99.90;;;-0.42;47.81;94576.44;4989394;28;20197;-69
2021/03/20 03:38:48;;;;;;;14.53;11.10;;;-1.00;99.90;;;-0.47;47.76;94580.59;4968202;28;20576;-70
2021/03/20 03:41:26;;;;;;;18.27;11.20;;;-1.10;99.90;;;-0.57;48.03;94581.66;4994333;28;20247;-70
2021/03/20 03:43:54;;;;;;;16.13;11.87;;;-1.20;99.90;;;-0.66;48.07;94581.91;4974310;28;20194;-70
2021/03/20 03:46:24;;;;;;;16.30;11.87;;;-1.30;99.90;;;-0.81;47.93;94578.53;5001728;28;20250;-70
2021/03/20 03:49:00;;;;;;;16.97;11.53;;;-1.40;99.90;;;-0.97;48.29;94581.28;4994955;28;20182;-70
2021/03/20 03:51:30;;;;;;;19.13;12.07;;;-1.50;99.90;;;-1.04;48.23;94575.97;5011876;28;20165;-70
2021/03/20 03:53:59;;;;;;;19.50;12.97;;;-1.60;99.90;;;-1.15;47.70;94587.63;5002381;28;20262;-70
2021/03/20 03:57:02;;;;;;;17.70;12.50;;;-1.70;99.90;;;-1.26;48.10;94579.41;4994670;28;20260;-70
2021/03/20 04:00:31;;;;;;;18.97;11.27;;;-1.80;99.90;;;-1.27;48.17;94581.22;4988835;28;20301;-70
2021/03/20 04:03:50;;;;;;;18.73;12.20;;;-1.80;99.90;;;-1.32;47.88;94593.94;4845770;29;20217;-70
2021/03/20 04:06:30;;;;;;;18.53;11.50;;;-1.90;99.90;;;-1.30;48.28;94596.34;4763817;30;20259;-70
2021/03/20 04:09:33;;;;;;;17.80;12.23;;;-1.90;99.90;;;-1.41;48.32;94588.97;4748778;30;20206;-70
2021/03/20 04:12:05;;;;;;;19.03;11.97;;;-2.00;99.90;;;-1.49;48.29;94582.03;4748137;30;20195;-70
2021/03/20 04:15:05;;;;;;;19.70;12.73;;;-2.10;99.90;;;-1.50;48.00;94603.81;4742355;30;20213;-70
2021/03/20 04:18:17;;;;;;;15.17;10.53;;;-2.10;99.90;;;-1.59;48.07;94605.66;4720001;30;20293;-70
2021/03/20 04:21:04;;;;;;;16.50;10.70;;;-2.20;99.90;;;-1.56;48.35;94610.53;4716441;30;20273;-70
2021/03/20 04:23:39;;;;;;;18.97;12.70;;;-2.20;99.90;;;-1.59;48.59;94599.66;4737596;30;20722;-70
2021/03/20 04:26:49;;;;;;;16.40;11.97;;;-2.20;99.90;;;-1.51;48.67;94602.19;4747715;30;20923;-70
2021/03/20 04:30:04;;;;;;;16.47;11.80;;;-2.20;99.90;;;-1.50;48.87;94597.81;4730471;30;20196;-70
2021/03/20 04:33:19;;;;;;;17.63;12.70;;;-2.20;99.90;;;-1.58;48.79;94593.50;4735929;30;20215;-70
2021/03/20 04:36:19;;;;;;;18.13;12.07;;;-2.20;99.90;;;-1.56;48.50;94601.91;4731686;30;20695;-70
2021/03/20 04:38:46;;;;;;;20.77;13.57;;;-2.20;99.90;;;-1.56;48.74;94594.13;4752641;30;20230;-70
2021/03/20 04:41:14;;;;;;;21.33;12.87;;;-2.20;99.90;;;-1.72;48.77;94591.63;4901076;29;20198;-70
2021/03/20 04:43:43;;;;;;;19.97;12.43;;;-2.40;99.90;;;-1.75;48.55;94604.97;4894048;29;20209;-70
2021/03/20 04:46:26;;;;;;;17.00;12.30;;;-2.40;99.90;;;-1.74;48.67;94599.59;4910645;29;20185;-70
2021/03/20 04:49:16;;;;;;;16.40;11.53;;;-2.30;99.90;;;-1.82;49.22;94615.25;4905418;29;20917;-70
2021/03/20 04:51:51;;;;;;;20.13;13.20;;;-2.40;99.90;;;-1.78;48.86;94620.91;4888179;29;20226;-70
2021/03/20 04:54:20;;;;;;;19.13;12.27;;;-2.40;99.90;;;-1.73;49.39;94616.81;4882771;29;20192;-70
2021/03/20 04:57:09;;;;;;;16.93;12.37;;;-2.40;99.90;;;-1.69;48.91;94612.06;4893384;29;20824;-70
2021/03/20 04:59:59;;;;;;;19.87;12.27;;;-2.30;99.90;;;-1.62;49.23;94628.59;4945194;29;20190;-70
2021/03/20 05:02:39;;;;;;;18.63;12.80;;;-2.30;99.90;;;-1.63;49.60;94612.19;4950371;29;20242;-70
2021/03/20 05:05:25;;;;;;;16.73;11.17;;;-2.20;99.90;;;-1.52;49.25;94628.34;4933972;29;20679;-70
2021/03/20 05:08:01;;;;;;;21.77;13.17;;;-2.20;99.90;;;-1.47;49.53;94631.22;4950751;29;20223;-70
2021/03/20 05:10:52;;;;;;;19.13;12.27;;;-2.20;99.90;;;-1.43;49.95;94632.50;4934113;29;20168;-70
2021/03/20 05:13:43;;;;;;;17.63;12.03;;;-2.10;99.90;;;-1.38;49.61;94636.22;4934485;29;20269;-70
2021/03/20 05:16:18;;;;;;;20.10;12.83;;;-2.10;99.90;;;-1.39;49.69;94637.19;4949145;28;20200;-70
2021/03/20 05:18:51;;;;;;;18.07;12.23;;;-2.00;99.90;;;-1.34;49.68;94636.69;4950365;29;20273;-70
2021/03/20 05:21:22;;;;;;;17.20;11.57;;;-2.00;99.90;;;-1.33;49.93;94648.69;4951722;28;20245;-70
2021/03/20 05:23:49;;;;;;;16.27;11.30;;;-2.00;99.90;;;-1.40;49.69;94645.16;4939108;29;20190;-69
2021/03/20 05:26:15;;;;;;;16.60;11.80;;;-2.00;99.90;;;-1.49;49.73;94646.19;4952342;28;20184;-70
2021/03/20 05:28:41;;;;;;;18.47;12.30;;;-2.10;99.90;;;-1.42;49.92;94653.16;4945383;29;20258;-71
2021/03/20 05:31:08;;;;;;;15.80;11.23;;;-2.10;99.90;;;-1.28;49.89;94651.59;4939522;28;20218;-70
2021/03/20 05:33:39;;;;;;;17.30;11.93;;;-2.00;99.90;;;-1.20;49.87;94659.31;4940617;29;20287;-71
2021/03/20 05:36:07;;;;;;;18.73;12.47;;;-1.90;99.90;;;-1.21;50.03;94647.31;4954098;28;20202;-70
2021/03/20 05:38:37;;;;;;;17.90;11.50;;;-1.90;99.90;;;-1.20;49.53;94659.31;4954620;29;20199;-70
2021/03/20 05:41:30;;;;;;;17.03;11.67;;;-1.90;99.90;;;-1.08;49.98;94657.94;4943880;29;20204;-70
2021/03/20 05:44:17;;;;;;;17.00;11.73;;;-1.80;99.90;;;-1.03;50.30;94660.81;4937672;29;20192;-71
2021/03/20 05:47:15;;;;;;;19.57;12.70;;;-1.80;99.90;;;-1.02;50.46;94656.41;4949959;28;20215;-70
2021/03/20 05:50:14;;;;;;;15.87;11.67;;;-1.70;99.90;;;-1.07;50.32;94660.34;4937373;29;20182;-69
2021/03/20 05:53:02;;;;;;;17.40;11.73;;;-1.70;99.90;;;-0.98;49.99;94673.28;4955629;28;20194;-70
2021/03/20 05:55:55;;;;;;;22.00;13.70;;;-1.70;99.90;;;-0.98;50.23;94668.09;5004709;28;20195;-72
2021/03/20 05:58:40;;;;;;;18.33;12.13;;;-1.60;99.90;;;-0.96;50.40;94686.91;4995879;28;20218;-70
2021/03/20 06:01:23;;;;;;;19.07;12.33;;;-1.70;99.90;;;-0.92;50.17;94686.41;5013472;28;20185;-70
2021/03/20 06:04:31;;;;;;;18.73;12.73;;;-1.60;99.90;;;-0.86;50.39;94685.69;5021020;28;20508;-70
2021/03/20 06:07:24;;;;;;;19.00;13.13;;;-1.50;99.90;;;-0.78;50.41;94701.25;5032200;28;20277;-69
2021/03/20 06:10:03;;;;;;;18.73;12.40;;;-1.50;99.90;;;-0.70;50.36;94695.97;5008965;28;20180;-70
2021/03/20 06:12:54;;;;;;;19.23;12.97;;;-1.30;99.90;;;-0.60;50.58;94693.91;5001736;28;20577;-69
2021/03/20 06:16:06;;;;;;;18.17;12.70;;;-1.30;99.90;;;-0.66;50.50;94705.03;4997294;28;20274;-69
2021/03/20 06:19:23;;;;;;;16.80;11.77;;;-1.30;99.90;;;-0.65;50.75;94698.03;5026901;28;20185;-69
2021/03/20 06:22:18;;;;;;;21.00;13.07;;;-1.30;99.90;;;-0.55;50.70;94707.22;5010252;28;20174;-70
2021/03/20 06:25:24;;;;;;;17.40;12.33;;;-1.30;99.90;;;-0.50;50.81;94711.88;4997155;28;20222;-69
2021/03/20 06:27:54;;;;;;;16.30;11.87;;;-1.20;99.90;;;-0.57;50.97;94711.78;5009749;28;20294;-69
2021/03/20 06:30:26;;;;;;;17.83;12.10;;;-1.20;99.90;;;-0.43;50.75;94709.38;5012050;28;20202;-69
2021/03/20 06:33:08;;;;;;;17.43;11.97;;;-1.10;99.90;;;-0.49;50.83;94699.69;5030365;28;20239;-69
2021/03/20 06:35:33;;;;;;;18.63;12.43;;;-1.10;99.90;;;-0.40;50.77;94707.22;5023815;28;20204;-69
2021/03/20 06:38:02;;;;;;;18.97;11.33;;;-1.00;99.90;;;-0.31;51.04;94711.41;5012584;28;20640;-69
2021/03/20 06:40:52;;;;;;;15.07;10.87;;;-1.00;99.90;;;-0.17;51.50;94700.16;5012479;28;20217;-70
2021/03/20 06:43:20;;;;;;;15.87;11.43;;;-0.80;99.90;;;-0.03;50.97;94701.97;5012823;28;20645;-69
2021/03/20 06:45:48;;;;;;;17.43;11.83;;;-0.70;99.90;;;0.00;51.24;94714.63;5012949;28;20208;-69
2021/03/20 06:48:29;;;;;;;14.80;10.77;;;-0.60;99.90;;;0.09;51.21;94710.16;4996369;28;20197;-69
2021/03/20 06:51:00;;;;;;;14.80;11.47;;;-0.50;99.90;;;0.20;51.06;94704.47;5008539;28;20173;-70
2021/03/20 06:54:02;;;;;;;15.63;11.53;;;-0.40;99.90;;;0.34;51.01;94710.66;5012903;28;20169;-70
2021/03/20 06:56:35;;;;;;;14.30;10.70;;;-0.30;99.90;;;0.40;51.39;94712.53;5012370;28;20192;-70
2021/03/20 06:59:09;;;;;;;13.57;10.83;;;-0.20;99.90;;;0.51;51.61;94722.47;5012809;28;20181;-69
2021/03/20 07:02:21;;;;;;;13.80;10.17;;;-0.20;99.90;;;0.65;51.69;94707.81;5011986;28;20330;-69
2021/03/20 07:05:11;;;;;;;12.40;9.97;;;0.00;99.90;;;0.80;51.01;94722.44;5014058;28;20188;-69
2021/03/20 07:07:50;;;;;;;13.53;10.07;;;0.10;99.90;;;1.04;51.60;94706.41;5012440;28;20224;-69
2021/03/20 07:10:47;;;;;;;12.80;10.47;;;0.50;99.90;;;1.46;51.32;94710.81;5020743;28;20194;-70
2021/03/20 07:13:25;;;;;;;16.90;11.30;;;0.80;99.90;;;1.75;51.17;94711.63;5010559;28;20248;-70
2021/03/20 07:16:16;;;;;;;12.07;9.97;;;1.10;99.90;;;1.96;51.27;94707.16;5027071;28;20216;-70
2021/03/20 07:18:54;;;;;;;11.87;9.87;;;1.40;99.90;;;2.29;51.27;94717.78;5005803;28;20178;-72
2021/03/20 07:21:38;;;;;;;13.43;10.33;;;1.80;99.90;;;2.52;52.35;94709.63;5027489;28;20194;-71
2021/03/20 07:24:32;;;;;;;14.93;10.70;;;2.20;99.90;;;2.73;51.92;94714.75;5011860;28;20173;-70
2021/03/20 07:26:59;;;;;;;13.57;9.80;;;2.40;99.90;;;2.64;51.43;94704.66;5008638;28;20219;-69
2021/03/20 07:29:47;;;;;;;13.13;9.90;;;2.40;99.90;;;2.89;51.49;94734.53;5012544;28;20267;-70
2021/03/20 07:32:39;;;;;;;10.10;8.93;;;2.60;99.90;;;3.08;51.65;94733.78;5012114;28;20251;-70
2021/03/20 07:35:20;;;;;;;11.00;9.37;;;2.80;99.90;;;3.39;51.62;94743.75;4994553;28;20588;-69
2021/03/20 07:37:51;;;;;;;9.70;8.67;;;3.20;99.90;;;6.10;51.57;94817.88;5044609;28;20193;-70
2021/03/20 07:40:26;;;;;;;8.83;7.93;;;5.00;99.90;;;8.90;52.26;94818.13;5010841;28;20651;-70
2021/03/20 07:43:20;;;;;;;10.83;8.00;;;7.90;99.90;;;11.45;52.53;94772.66;5039612;28;20192;-69
2021/03/20 07:45:49;;;;;;;8.63;7.73;;;11.10;99.90;;;12.74;52.25;94779.47;5006400;28;20197;-70
2021/03/20 07:48:26;;;;;;;9.17;8.23;;;12.80;93.70;;;12.67;52.90;94671.69;5026492;28;20207;-70
2021/03/20 07:51:05;;;;;;;8.83;7.97;;;14.00;84.10;;;10.54;52.39;94670.72;4990778;28;20186;-70
2021/03/20 07:53:39;;;;;;;8.90;8.10;;;12.60;82.60;;;10.04;52.08;94742.28;5024639;28;20184;-70
2021/03/20 07:56:23;;;;;;;9.10;8.20;;;11.70;84.50;;;11.51;51.55;94808.81;4993970;28;20211;-70
2021/03/20 07:59:21;;;;;;;9.30;8.30;;;12.30;85.00;;;13.57;52.26;94763.66;5011646;28;20177;-70
2021/03/20 08:02:00;;;;;;;8.60;7.70;;;14.70;77.30;;;13.97;52.14;94766.44;4993736;28;20214;-70
2021/03/20 08:05:05;;;;;;;8.67;7.87;;;15.10;72.50;;;11.76;51.71;94746.22;5010348;28;20927;-70
2021/03/20 08:07:48;;;;;;;9.60;8.70;;;13.80;74.60;;;10.27;51.31;94760.69;5010122;28;20210;-70
2021/03/20 08:10:29;;;;;;;9.67;8.77;;;12.20;76.70;;;9.15;50.71;94742.00;5010500;28;20176;-70
2021/03/20 08:13:14;;;;;;;9.90;8.90;;;10.90;81.60;;;8.51;51.01;94716.59;5032642;28;20241;-70
2021/03/20 08:15:56;;;;;;;9.10;8.20;;;9.80;85.00;;;7.78;50.68;94763.69;5005472;28;20169;-71
2021/03/20 08:18:32;;;;;;;9.63;8.73;;;8.90;90.40;;;7.81;51.32;94765.06;4993901;28;20171;-70
2021/03/20 08:21:20;;;;;;;10.40;9.30;;;8.70;91.10;;;7.34;50.93;94745.66;5023492;28;20183;-70
2021/03/20 08:24:07;;;;;;;9.87;8.80;;;8.30;90.70;;;7.19;50.41;94777.66;5027913;28;20336;-69
2021/03/20 08:26:58;;;;;;;8.80;8.00;;;7.80;91.30;;;5.94;50.70;94725.50;5027016;28;20560;-69
2021/03/20 08:30:03;;;;;;;9.10;7.90;;;6.90;91.30;;;5.82;50.57;94777.16;5018727;28;20579;-70
2021/03/20 08:33:22;;;;;;;9.63;8.63;;;6.10;93.90;;;6.11;50.19;94798.41;4994097;28;20185;-69
2021/03/20 08:36:05;;;;;;;9.03;8.13;;;6.20;95.50;;;6.13;50.03;94759.53;4969455;28;20222;-69
2021/03/20 08:39:30;;;;;;;8.30;7.50;;;6.10;95.20;;;5.71;50.53;94783.13;4970428;28;20190;-69
2021/03/20 08:42:19;;;;;;;10.60;7.90;;;5.90;94.60;;;5.37;50.35;94792.22;4938751;29;20195;-70
2021/03/20 08:45:17;;;;;;;9.73;7.73;;;5.40;95.60;;;4.85;50.14;94767.78;4930979;29;20203;-69
2021/03/20 08:47:59;;;;;;;8.83;7.90;;;5.10;95.40;;;5.01;49.95;94777.81;4935142;29;20204;-70
2021/03/20 08:50:43;;;;;;;8.00;7.20;;;4.90;95.90;;;4.69;50.33;94759.56;4915562;29;20230;-69
2021/03/20 08:53:28;;;;;;;8.37;7.57;;;4.70;96.60;;;4.70;49.87;94795.31;4947665;29;20178;-69
2021/03/20 08:56:10;;;;;;;8.23;7.40;;;4.60;97.20;;;4.88;49.80;94777.06;4914249;29;20191;-69
2021/03/20 08:58:59;;;;;;;10.23;8.80;;;4.70;98.20;;;4.97;50.01;94818.63;4911935;29;20202;-71
2021/03/20 09:01:52;;;;;;;8.63;7.73;;;4.60;98.30;;;10.20;50.47;94930.41;4915878;29;20207;-69
2021/03/20 09:04:27;;;;;;;8.77;7.23;;;8.60;95.90;;;11.25;50.75;94836.88;4910981;29;20196;-70
2021/03/20 09:07:07;;;;;;;13.27;6.80;;;11.10;88.50;;;12.12;50.88;94760.63;4941200;29;20294;-70
2021/03/20 09:09:40;;;;;;;9.07;8.07;;;12.70;81.80;;;11.78;50.79;94754.72;4941645;28;20297;-71
2021/03/20 09:12:18;;;;;;;7.60;6.83;;;12.60;78.20;;;10.89;50.43;94761.34;4947830;28;20601;-70
2021/03/20 09:14:47;;;;;;;7.17;6.40;;;12.00;79.40;;;10.27;50.36;94771.28;4982012;28;20193;-73
2021/03/20 09:17:41;;;;;;;7.97;7.23;;;11.20;81.50;;;9.14;50.02;94808.31;5008373;28;20193;-71
2021/03/20 09:20:39;;;;;;;7.47;6.77;;;10.00;84.80;;;8.82;49.71;94788.59;5003685;28;20196;-72
2021/03/20 09:23:20;;;;;;;8.90;7.60;;;9.40;87.70;;;8.69;50.42;94798.38;4991459;28;20198;-72
2021/03/20 09:25:57;;;;;;;8.33;7.53;;;9.10;89.90;;;8.48;50.21;94780.47;5009721;28;20217;-70
2021/03/20 09:28:29;;;;;;;10.93;7.83;;;9.00;90.40;;;7.81;49.75;94773.78;5007694;28;20280;-69
2021/03/20 09:31:33;;;;;;;8.20;7.40;;;8.40;91.10;;;7.01;49.73;94825.13;4996756;28;20190;-70
2021/03/20 09:34:17;;;;;;;8.43;7.63;;;7.50;92.60;;;6.38;50.14;94814.78;5001852;28;20240;-72
2021/03/20 09:36:51;;;;;;;8.70;7.80;;;6.70;94.30;;;7.13;49.10;94842.63;5004339;28;20196;-71
2021/03/20 09:39:50;;;;;;;9.23;7.87;;;7.00;95.30;;;7.61;49.84;94824.19;5009786;28;20184;-70
2021/03/20 09:42:27;;;;;;;10.17;7.93;;;7.50;94.70;;;7.14;49.27;94786.25;5006221;28;20272;-71
2021/03/20 09:45:11;;;;;;;8.07;7.27;;;7.30;94.90;;;6.57;49.36;94820.91;5008514;28;20205;-71
2021/03/20 09:47:54;;;;;;;8.17;7.03;;;6.80;95.60;;;6.36;49.60;94818.66;5004937;28;20285;-71
2021/03/20 09:50:20;;;;;;;8.77;7.07;;;6.50;95.50;;;6.06;49.90;94827.19;5009720;28;20190;-71
2021/03/20 09:53:08;;;;;;;8.07;7.27;;;6.10;96.80;;;9.17;50.13;94961.22;5026246;28;20552;-72
2021/03/20 09:55:57;;;;;;;7.03;6.40;;;7.90;96.60;;;14.85;50.12;94989.38;5010380;28;20177;-72
2021/03/20 09:58:23;;;;;;;7.27;6.57;;;12.90;90.40;;;15.70;50.57;94787.38;4991733;28;20621;-71
2021/03/20 10:00:53;;;;;;;8.10;7.20;;;15.90;76.00;;;13.03;50.53;94733.84;5008650;28;20257;-72
2021/03/20 10:03:53;;;;;;;7.67;6.97;;;14.50;72.80;;;10.72;49.85;94805.63;5008530;28;20274;-72
2021/03/20 10:06:35;;;;;;;7.50;6.80;;;12.50;77.20;;;9.26;49.37;94869.94;5012489;28;20184;-72
2021/03/20 10:09:23;;;;;;;7.00;6.33;;;10.40;83.20;;;9.18;49.54;94831.44;5012943;28;20188;-72
2021/03/20 10:11:58;;;;;;;7.03;6.40;;;9.80;84.30;;;10.01;49.41;94854.75;4993515;28;20184;-72
2021/03/20 10:14:35;;;;;;;7.37;6.33;;;10.20;85.20;;;10.15;49.10;94824.34;5011567;28;20173;-73
2021/03/20 10:17:04;;;;;;;6.97;6.27;;;10.30;83.80;;;10.24;49.29;94861.84;5013034;28;20562;-72
2021/03/20 10:19:47;;;;;;;7.03;6.33;;;10.40;84.60;;;12.53;49.42;94892.03;5013664;28;20172;-72
2021/03/20 10:22:32;;;;;;;6.53;5.93;;;12.10;79.90;;;13.47;49.16;94905.56;4995843;28;20641;-71
2021/03/20 10:25:07;;;;;;;6.10;5.53;;;13.20;73.50;;;15.84;49.46;94819.66;5013347;28;20232;-70
2021/03/20 10:27:52;;;;;;;6.10;5.47;;;16.20;67.60;;;16.18;49.43;94839.28;5012238;28;20201;-71
2021/03/20 10:30:31;;;;;;;5.60;5.20;;;17.10;64.00;;;14.76;49.13;94816.69;5012905;28;20334;-71
2021/03/20 10:33:14;;;;;;;6.40;5.80;;;16.30;63.00;;;13.30;48.93;94803.75;5011231;28;20189;-71
2021/03/20 10:35:41;;;;;;;5.20;4.70;;;15.00;65.00;;;13.11;49.19;94821.22;5028662;28;20255;-72
2021/03/20 10:38:28;;;;;;;5.30;4.87;;;14.40;64.70;;;13.73;48.56;94888.66;5013240;28;20209;-71
2021/03/20 10:41:06;;;;;;;5.37;4.80;;;14.50;67.30;;;14.53;48.43;94843.91;5029453;28;20631;-72
2021/03/20 10:43:56;;;;;;;5.43;5.00;;;15.60;63.10;;;13.30;48.14;94883.63;5014585;28;20174;-72
2021/03/20 10:46:26;;;;;;;5.13;4.63;;;14.60;64.40;;;15.33;48.35;94875.91;5026160;28;20181;-71
2021/03/20 10:48:56;;;;;;;4.83;4.43;;;16.10;60.10;;;17.67;48.44;94752.84;5013215;28;20168;-72
2021/03/20 10:51:33;;;;;;;4.63;4.33;;;18.90;54.60;;;16.89;48.21;94869.09;5013200;28;20535;-71
2021/03/20 10:54:11;;;;;;;4.80;4.40;;;18.30;53.90;;;18.59;48.25;94884.75;5004962;28;20167;-71
2021/03/20 10:56:40;;;;;;;4.47;4.17;;;19.80;52.10;;;20.93;47.89;94816.31;5022473;28;20270;-72
2021/03/20 10:59:15;;;;;;;4.30;4.00;;;22.20;50.40;;;21.36;47.67;94822.00;4996050;28;20198;-71
2021/03/20 11:01:44;;;;;;;4.73;4.33;;;23.40;47.60;;;19.39;47.96;94652.28;5015731;28;20234;-72
2021/03/20 11:04:31;;;;;;;4.60;4.20;;;22.20;47.80;;;15.48;47.38;94717.47;5009968;28;20188;-71
2021/03/20 11:07:01;;;;;;;4.50;4.20;;;19.20;51.10;;;12.18;47.00;94655.19;5027234;28;20661;-70
2021/03/20 11:09:31;;;;;;;4.87;4.47;;;15.50;54.80;;;9.58;46.69;94685.91;5011802;28;20632;-72
2021/03/20 11:12:12;;;;;;;4.70;4.30;;;12.50;60.00;;;8.15;46.21;94791.53;4992938;28;20212;-72
2021/03/20 11:14:52;;;;;;;4.70;4.30;;;10.10;66.00;;;7.53;46.83;94805.22;5040953;28;20190;-73